KMRF

Marfa Municipal Airport

Marfa, Texas, USA
METAR KMRF 230756Z AUTO 35006KT 10SM CLR 01/M09 A3013 RMK AO2 SLP180 T00061094 FZRANO
Observed Flight Rules
Feb-23 @ 07:56 UTC (20 minutes ago) Visual Flight Rules
Wind Visibility Clouds
350° at 6 knots 10 miles
  • Clear skies
Temperatures Readings
Current 1°C / 34°F
Dewpoint -9°C / 16°F
Humidity 48%
Altimeter 30.13" Hg
Pressure 1018 hPa
Elevation 1481
METAR KMRF 230756Z AUTO 35006KT 10SM CLR 01/M09 A3013 RMK AO2 SLP180 T00061094 FZRANO
Observed Flight Rules
Feb-23 @ 07:56 UTC
(20 minutes ago)
VFR
Wind Visibility
350° at 6 knots 10 miles
Clouds
  • Clear skies
Temperature Dewpoint
1°C / 34°F -9°C / 16°F
Humidity Altimeter Pressure
48% 30.13" Hg 1018 hPa